This is the latest recevied weather packets stored in our database for station/object SQ7FJB-2. If no packets are shown the sender has not sent any weather packets the latest 1 day(s).
| Time | Temp. | Humidity | Pressure | Rain* | Wind** | Luminosity | Snow |
|---|---|---|---|---|---|---|---|
| 1778018616 | 10.56° C | 65% | 1004.9 hPa | 0 mm | 0 m/s | - | - |
| 1778018004 | 11.67° C | 60% | 1005 hPa | 0 mm | 0 m/s | - | - |
| 1778017403 | 11.67° C | 62% | 1005 hPa | 0 mm | 0 m/s | - | - |
| 1778016791 | 12.22° C | 58% | 1005 hPa | 0 mm | 0 m/s | - | - |
| 1778016191 | 12.22° C | 57% | 1005 hPa | 0 mm | 0 m/s | - | - |
| 1778015578 | 13.33° C | 52% | 1004.8 hPa | 0 mm | 0 m/s | - | - |
| 1778014966 | 14.44° C | 45% | 1004.8 hPa | 0 mm | 0 m/s | - | - |
| 1778014366 | 13.89° C | 45% | 1004.8 hPa | 0 mm | 0 m/s | - | - |
| 1778013765 | 13.33° C | 50% | 1004.8 hPa | 0 mm | 0 m/s | - | - |
| 1778013154 | 13.89° C | 46% | 1004.8 hPa | 0 mm | 0 m/s | - | - |
| 1778012553 | 13.33° C | 52% | 1004.7 hPa | 0 mm | 0 m/s | - | - |
| 1778011941 | 13.89° C | 47% | 1004.7 hPa | 0 mm | 0 m/s | - | - |
| 1778011340 | 14.44° C | 47% | 1004.6 hPa | 0 mm | 0 m/s | - | - |
| 1778010728 | 15° C | 46% | 1004.5 hPa | 0 mm | 0 m/s | - | - |
| 1778010128 | 13.89° C | 47% | 1004.6 hPa | 0 mm | 0 m/s | - | - |
| 1778009516 | 13.89° C | 50% | 1004.7 hPa | 0 mm | 0 m/s | - | - |
| 1778008916 | 14.44° C | 49% | 1004.7 hPa | 0 mm | 0 m/s | - | - |
| 1778008316 | 14.44° C | 49% | 1004.6 hPa | 0 mm | 0 m/s | - | - |
| 1778007715 | 15.56° C | 45% | 1004.7 hPa | 0 mm | 0 m/s | - | - |
| 1778007103 | 16.11° C | 41% | 1004.6 hPa | 0 mm | 0 m/s | - | - |
| 1778006490 | 16.67° C | 38% | 1004.6 hPa | 0 mm | 0 m/s | - | - |
| 1778005890 | 17.22° C | 39% | 1004.6 hPa | 0 mm | 0 m/s | - | - |
| 1778005290 | 16.67° C | 42% | 1004.6 hPa | 0 mm | 0 m/s | - | - |
| 1778004678 | 17.22° C | 45% | 1004.4 hPa | 0 mm | 0 m/s | - | - |
| 1778002854 | 20.56° C | 39% | 1004.2 hPa | 0 mm | 0 m/s | - | - |
* Rain latest hour (hover to see other rain measurements)
** Current wind speed in m/s (hover to see current wind gust speed)